createdAt,value
2018-08-01T13:09:02.661Z,26.34
2018-08-01T13:10:02.641Z,26.86
2018-08-01T13:11:02.623Z,25.87
2018-08-01T13:12:02.608Z,25.07
2018-08-01T13:13:02.594Z,25.78
2018-08-01T13:14:02.582Z,25.87
2018-08-01T13:15:02.571Z,27.03
2018-08-01T13:16:02.559Z,25.95
2018-08-01T13:17:02.548Z,26.43
2018-08-01T13:18:02.537Z,27.50
2018-08-01T13:19:02.526Z,26.81
2018-08-01T13:20:02.518Z,27.10
2018-08-01T13:21:02.506Z,28.74
2018-08-01T13:22:02.498Z,29.38
2018-08-01T13:23:02.489Z,29.89
2018-08-01T13:24:02.479Z,29.58
2018-08-01T13:25:02.471Z,28.64
2018-08-01T13:26:02.463Z,28.66
2018-08-01T13:27:02.458Z,27.10
2018-08-01T13:28:02.449Z,27.69
2018-08-01T13:29:02.437Z,27.78
2018-08-01T13:30:02.431Z,26.62
2018-08-01T13:31:02.420Z,26.34
2018-08-01T13:32:02.427Z,25.74
2018-08-01T13:33:02.405Z,26.04
2018-08-01T13:34:02.397Z,25.77
2018-08-01T13:35:02.389Z,25.08
2018-08-01T13:36:02.381Z,25.87
2018-08-01T13:37:02.379Z,25.74
2018-08-01T13:38:02.367Z,25.74
2018-08-01T13:39:02.420Z,25.86
2018-08-01T13:40:02.352Z,26.17
2018-08-01T13:41:02.351Z,24.99
2018-08-01T13:42:02.338Z,24.11
2018-08-01T13:43:02.330Z,24.21
2018-08-01T13:44:02.416Z,23.81
2018-08-01T13:45:02.322Z,24.10
2018-08-01T13:46:02.310Z,24.69
2018-08-01T13:47:02.301Z,26.03
2018-08-01T13:48:02.294Z,25.72
2018-08-01T13:49:02.288Z,27.10
2018-08-01T13:50:02.289Z,27.50
2018-08-01T13:51:02.312Z,27.57
2018-08-01T13:52:02.267Z,28.31
2018-08-01T13:53:02.258Z,29.00
2018-08-01T13:54:02.252Z,28.54
2018-08-01T13:55:02.247Z,28.14
2018-08-01T13:56:02.239Z,28.08
2018-08-01T13:57:02.229Z,28.08
2018-08-01T13:58:02.223Z,28.47
2018-08-01T13:59:02.215Z,29.41
2018-08-01T14:00:02.207Z,29.79
2018-08-01T14:01:02.201Z,29.71
2018-08-01T14:02:02.197Z,29.77
2018-08-01T14:03:02.187Z,30.74
2018-08-01T14:04:02.180Z,31.04
2018-08-01T14:05:02.171Z,32.09
2018-08-01T14:06:02.163Z,33.23
2018-08-01T14:07:02.155Z,32.68
2018-08-01T14:08:02.148Z,31.97
2018-08-01T14:09:02.140Z,33.05
2018-08-01T14:10:02.133Z,32.46
2018-08-01T14:11:02.125Z,32.95
2018-08-01T14:12:02.116Z,31.81
2018-08-01T14:13:02.108Z,29.99
2018-08-01T14:14:02.100Z,29.33
2018-08-01T14:15:02.093Z,29.51
2018-08-01T14:16:02.087Z,31.05
2018-08-01T14:17:02.141Z,30.74
2018-08-01T14:18:02.068Z,30.84
2018-08-01T14:19:02.085Z,30.69
2018-08-01T14:20:02.052Z,28.36
2018-08-01T14:21:02.044Z,27.70
2018-08-01T14:22:02.036Z,26.83
2018-08-01T14:23:02.028Z,26.45
2018-08-01T14:24:02.020Z,26.15
2018-08-01T14:25:02.013Z,25.74
2018-08-01T14:26:02.007Z,27.03
2018-08-01T14:27:01.997Z,28.21
2018-08-01T14:28:01.988Z,26.64
2018-08-01T14:29:01.980Z,26.64
2018-08-01T14:30:01.973Z,26.03
2018-08-01T14:31:01.967Z,26.79
2018-08-01T14:32:01.958Z,27.10
2018-08-01T14:33:01.995Z,27.30
2018-08-01T14:34:01.941Z,26.83
2018-08-01T14:35:01.934Z,27.03
2018-08-01T14:36:01.925Z,27.03
2018-08-01T14:37:01.919Z,26.71
2018-08-01T14:38:01.914Z,26.81
2018-08-01T14:39:01.903Z,26.92
2018-08-01T14:40:01.896Z,26.92
2018-08-01T14:41:01.891Z,26.62
2018-08-01T14:42:01.880Z,27.79
2018-08-01T14:43:01.873Z,28.28
2018-08-01T14:44:01.867Z,26.72
2018-08-01T14:45:01.859Z,27.10
2018-08-01T14:46:01.851Z,27.10
2018-08-01T14:47:01.843Z,25.93
2018-08-01T14:48:01.833Z,26.12
2018-08-01T14:49:01.827Z,26.64
2018-08-01T14:50:01.821Z,25.96
2018-08-01T14:51:01.812Z,25.28
2018-08-01T14:52:01.804Z,24.97
2018-08-01T14:53:01.796Z,25.77
2018-08-01T14:54:01.790Z,25.78
2018-08-01T14:55:01.781Z,25.49
2018-08-01T14:56:01.776Z,25.97
2018-08-01T14:57:01.768Z,25.97
2018-08-01T14:58:01.761Z,25.96
2018-08-01T14:59:01.751Z,27.30
2018-08-01T15:00:01.744Z,28.17
2018-08-01T15:01:01.738Z,29.13
2018-08-01T15:02:01.731Z,29.58
2018-08-01T15:03:01.723Z,30.55
2018-08-01T15:04:01.715Z,30.58
2018-08-01T15:05:01.708Z,29.92
2018-08-01T15:06:01.700Z,29.43
2018-08-01T15:07:01.695Z,30.08
2018-08-01T15:08:01.684Z,29.89
2018-08-01T15:09:01.676Z,30.46
2018-08-01T15:10:01.670Z,29.00
2018-08-01T15:11:01.660Z,29.33
2018-08-01T15:12:01.652Z,27.97
2018-08-01T15:13:01.644Z,27.68
2018-08-01T15:14:01.637Z,27.37
2018-08-01T15:15:01.629Z,27.89
2018-08-01T15:16:01.625Z,27.27
2018-08-01T15:17:01.612Z,28.36
2018-08-01T15:18:01.607Z,28.06
2018-08-01T15:19:01.598Z,27.87
2018-08-01T15:20:01.590Z,27.09
2018-08-01T15:21:01.582Z,27.30
2018-08-01T15:22:01.575Z,27.08
2018-08-01T15:23:01.564Z,27.95
2018-08-01T15:24:01.558Z,28.13
2018-08-01T15:25:01.552Z,27.96
2018-08-01T15:26:01.934Z,27.39
2018-08-01T15:27:01.537Z,26.13
2018-08-01T15:28:01.525Z,25.45
2018-08-01T15:29:01.518Z,25.07
2018-08-01T15:30:01.509Z,24.57
2018-08-01T15:31:01.503Z,25.18
2018-08-01T15:32:01.492Z,24.98
2018-08-01T15:33:01.486Z,24.60
2018-08-01T15:34:01.478Z,25.09
2018-08-01T15:35:01.471Z,24.29
2018-08-01T15:36:01.463Z,25.87
2018-08-01T15:37:01.455Z,25.26
2018-08-01T15:38:01.446Z,25.54
2018-08-01T15:39:01.438Z,26.61
2018-08-01T15:40:01.442Z,28.83
2018-08-01T15:41:01.432Z,30.27
2018-08-01T15:42:01.415Z,30.25
2018-08-01T15:43:01.408Z,30.84
2018-08-01T15:44:01.413Z,30.42
2018-08-01T15:45:01.395Z,31.09
2018-08-01T15:46:01.416Z,31.58
2018-08-01T15:47:01.375Z,32.15
2018-08-01T15:48:01.369Z,33.02
2018-08-01T15:49:01.363Z,33.50
2018-08-01T15:50:01.352Z,34.28
2018-08-01T15:51:15.170Z,35.16
2018-08-01T15:52:15.238Z,34.47
2018-08-01T15:53:15.154Z,34.94
2018-08-01T15:54:15.207Z,35.53
2018-08-01T15:55:15.133Z,36.12
2018-08-01T15:56:15.126Z,35.24
2018-08-01T15:57:15.116Z,36.41
2018-08-01T15:58:15.108Z,36.49
2018-08-01T15:59:15.381Z,36.47
2018-08-01T16:00:15.091Z,36.96
2018-08-01T16:01:15.082Z,36.67
2018-08-01T16:02:15.074Z,36.67
2018-08-01T16:03:15.065Z,36.77
2018-08-01T16:04:15.056Z,36.87
2018-08-01T16:05:15.046Z,36.67
2018-08-01T16:06:15.094Z,36.28
2018-08-01T16:07:15.029Z,36.30
2018-08-01T16:08:15.021Z,36.10
2018-08-01T16:09:15.012Z,35.91
2018-08-01T16:10:15.001Z,36.38
2018-08-01T16:11:14.993Z,37.43
2018-08-01T16:12:14.983Z,37.71
2018-08-01T16:13:14.974Z,37.93
2018-08-01T16:14:14.966Z,36.75
2018-08-01T16:15:14.955Z,36.77
2018-08-01T16:16:14.947Z,36.69
2018-08-01T16:17:14.954Z,35.52
2018-08-01T16:18:14.930Z,36.41
2018-08-01T16:19:14.918Z,35.44
2018-08-01T16:20:14.908Z,35.35
2018-08-01T16:21:14.898Z,34.96
2018-08-01T16:22:14.890Z,34.77
2018-08-01T16:23:14.882Z,35.25
2018-08-01T16:24:14.871Z,36.22
2018-08-01T16:25:14.860Z,36.90
2018-08-01T16:26:14.852Z,36.79
2018-08-01T16:27:14.841Z,38.92
2018-08-01T16:28:14.833Z,39.49
2018-08-01T16:29:14.821Z,38.98
2018-08-01T16:30:14.812Z,38.87
2018-08-01T16:31:14.801Z,40.04
2018-08-01T16:32:14.869Z,40.14
2018-08-01T16:33:14.783Z,40.60
2018-08-01T16:34:14.774Z,40.60
2018-08-01T16:35:14.761Z,39.33
2018-08-01T16:36:14.796Z,38.87
2018-08-01T16:37:14.743Z,37.71
2018-08-01T16:38:14.732Z,37.54
2018-08-01T16:39:14.723Z,37.55
2018-08-01T16:40:14.713Z,36.55
2018-08-01T16:41:14.702Z,37.73
2018-08-01T16:42:14.705Z,37.12
2018-08-01T16:43:14.681Z,38.20
2018-08-01T16:44:14.670Z,38.77
2018-08-01T16:45:14.662Z,39.14
2018-08-01T16:46:14.651Z,39.62
2018-08-01T16:47:14.639Z,39.90
2018-08-01T16:48:14.629Z,39.70
2018-08-01T16:49:14.619Z,39.88
2018-08-01T16:50:14.609Z,40.48
2018-08-01T16:51:14.599Z,40.17
2018-08-01T16:52:14.587Z,40.17
2018-08-01T16:53:14.578Z,40.66
2018-08-01T16:54:14.565Z,40.76
2018-08-01T16:55:14.555Z,40.56
2018-08-01T16:56:14.544Z,41.54
2018-08-01T16:57:14.533Z,40.76
2018-08-01T16:58:14.522Z,40.47
2018-08-01T16:59:14.512Z,40.35
2018-08-01T17:00:14.501Z,40.08
2018-08-01T17:01:14.490Z,40.17
2018-08-01T17:02:14.480Z,40.08
2018-08-01T17:03:14.488Z,40.45
2018-08-01T17:04:14.457Z,40.47
2018-08-01T17:05:14.447Z,40.66
2018-08-01T17:06:14.442Z,40.66
2018-08-01T17:07:14.423Z,41.05
2018-08-01T17:08:14.417Z,41.73
2018-08-01T17:09:14.402Z,42.02
2018-08-01T17:10:14.416Z,41.44
2018-08-01T17:11:14.380Z,42.12
2018-08-01T17:12:14.370Z,41.54
2018-08-01T17:13:14.357Z,40.86
2018-08-01T17:14:14.348Z,41.44
2018-08-01T17:15:14.339Z,41.63
2018-08-01T17:16:14.329Z,41.73
2018-08-01T17:17:14.313Z,41.42
2018-08-01T17:18:14.303Z,41.61
2018-08-01T17:19:14.291Z,41.52
2018-08-01T17:20:14.284Z,41.44
2018-08-01T17:21:14.270Z,41.54
2018-08-01T17:22:14.258Z,41.61
2018-08-01T17:23:14.245Z,41.91
2018-08-01T17:24:14.234Z,42.40
2018-08-01T17:25:14.224Z,42.69
2018-08-01T17:26:14.222Z,42.59
2018-08-01T17:27:14.201Z,42.49
2018-08-01T17:28:14.209Z,42.59
2018-08-01T17:29:14.178Z,42.98
2018-08-01T17:30:14.167Z,43.49
2018-08-01T17:31:14.154Z,44.85
2018-08-01T17:32:14.145Z,43.29
2018-08-01T17:33:14.133Z,42.80
2018-08-01T17:34:14.121Z,43.49
2018-08-01T17:35:14.109Z,44.95
2018-08-01T17:36:14.098Z,45.05
2018-08-01T17:37:14.088Z,43.95
2018-08-01T17:38:14.076Z,43.85
2018-08-01T17:39:14.065Z,44.85
2018-08-01T17:40:14.053Z,44.66
2018-08-01T17:41:14.041Z,44.07
2018-08-01T17:42:14.031Z,44.37
2018-08-01T17:43:14.018Z,44.37
2018-08-01T17:44:14.008Z,44.07
2018-08-01T17:45:13.997Z,44.07
2018-08-01T17:46:14.005Z,43.85
2018-08-01T17:47:13.972Z,44.37
2018-08-01T17:48:13.961Z,44.54
2018-08-01T17:49:13.965Z,43.76
2018-08-01T17:50:13.939Z,43.95
2018-08-01T17:51:13.926Z,44.93
2018-08-01T17:52:13.915Z,44.54
2018-08-01T17:53:13.904Z,44.24
2018-08-01T17:54:13.908Z,43.18
2018-08-01T17:55:13.881Z,43.47
2018-08-01T17:56:13.869Z,43.27
2018-08-01T17:57:13.856Z,44.34
2018-08-01T17:58:13.847Z,43.44
2018-08-01T17:59:13.833Z,44.13
2018-08-01T18:00:13.822Z,43.44
2018-08-01T18:01:13.812Z,44.90
2018-08-01T18:02:13.801Z,44.52
2018-08-01T18:03:13.788Z,43.93
2018-08-01T18:04:13.775Z,44.23
2018-08-01T18:05:13.765Z,44.20
2018-08-01T18:06:13.752Z,44.52
2018-08-01T18:07:13.741Z,44.62
2018-08-01T18:08:13.780Z,44.62
2018-08-01T18:09:13.716Z,44.49
2018-08-01T18:10:13.704Z,45.08
2018-08-01T18:11:13.693Z,46.05
2018-08-01T18:12:13.683Z,45.47
2018-08-01T18:13:13.670Z,45.86
2018-08-01T18:14:13.657Z,45.47
2018-08-01T18:15:13.645Z,46.61
2018-08-01T18:16:13.634Z,46.32
2018-08-01T18:17:13.622Z,46.81
2018-08-01T18:18:13.609Z,46.42
2018-08-01T18:19:13.609Z,47.00
2018-08-01T18:20:13.584Z,47.49
2018-08-01T18:21:13.572Z,47.88
2018-08-01T18:22:13.561Z,47.00
2018-08-01T18:23:13.549Z,47.49
2018-08-01T18:24:13.537Z,48.17
2018-08-01T18:25:13.527Z,47.76
2018-08-01T18:26:13.512Z,47.96
2018-08-01T18:27:13.499Z,48.34
2018-08-01T18:28:13.485Z,48.73
2018-08-01T18:29:13.507Z,49.22
2018-08-01T18:30:13.536Z,49.61
2018-08-01T18:31:13.453Z,49.78
2018-08-01T18:32:13.439Z,49.87
2018-08-01T18:33:13.425Z,50.16
2018-08-01T18:34:13.413Z,50.36
2018-08-01T18:35:13.401Z,50.95
2018-08-01T18:36:13.484Z,50.85
2018-08-01T18:37:13.377Z,51.33
2018-08-01T18:38:13.364Z,51.21
2018-08-01T18:39:13.351Z,51.14
2018-08-01T18:40:13.337Z,51.31
2018-08-01T18:41:13.326Z,51.70
2018-08-01T18:42:13.313Z,51.99
2018-08-01T18:43:13.299Z,52.47
2018-08-01T18:44:13.288Z,52.28
2018-08-01T18:45:13.278Z,52.55
2018-08-01T18:46:13.262Z,53.03
2018-08-01T18:47:13.248Z,54.20
2018-08-01T18:48:13.237Z,54.00
2018-08-01T18:49:13.227Z,54.27
2018-08-01T18:50:13.212Z,55.14
2018-08-01T18:51:13.199Z,54.66
2018-08-01T18:52:13.186Z,54.56
2018-08-01T18:53:13.174Z,55.14
2018-08-01T18:54:13.206Z,55.43
2018-08-01T18:55:13.147Z,55.24
2018-08-01T18:56:13.135Z,54.85
2018-08-01T18:57:13.121Z,55.21
2018-08-01T18:58:13.109Z,55.31
2018-08-01T18:59:13.094Z,55.11
2018-08-01T19:00:13.081Z,55.50
2018-08-01T19:01:13.069Z,55.89
2018-08-01T19:02:13.055Z,56.37
2018-08-01T19:03:13.131Z,56.64
2018-08-01T19:04:13.030Z,56.64
2018-08-01T19:05:13.017Z,57.03
2018-08-01T19:06:13.003Z,57.32
2018-08-01T19:07:12.990Z,57.68
2018-08-01T19:08:12.976Z,57.97
2018-08-01T19:09:12.965Z,57.87
2018-08-01T19:10:13.020Z,58.36
2018-08-01T19:11:12.935Z,58.16
2018-08-01T19:12:12.923Z,58.55
2018-08-01T19:13:12.909Z,58.74
2018-08-01T19:14:12.897Z,59.03
2018-08-01T19:15:12.882Z,59.23
2018-08-01T19:16:12.870Z,59.91
2018-08-01T19:17:12.856Z,59.59
2018-08-01T19:18:12.844Z,59.69
2018-08-01T19:19:12.829Z,59.88
2018-08-01T19:20:12.816Z,60.65
2018-08-01T19:21:12.802Z,60.55
2018-08-01T19:22:12.789Z,61.14
2018-08-01T19:23:12.774Z,61.14
2018-08-01T19:24:12.761Z,61.01
2018-08-01T19:25:12.747Z,61.62
2018-08-01T19:26:12.768Z,61.98
2018-08-01T19:27:12.720Z,61.69
2018-08-01T19:28:12.705Z,61.40
2018-08-01T19:29:12.692Z,61.88
2018-08-01T19:30:12.683Z,62.27
2018-08-01T19:31:12.666Z,62.27
2018-08-01T19:32:12.655Z,62.46
2018-08-01T19:33:12.638Z,62.17
2018-08-01T19:34:12.624Z,62.75
2018-08-01T19:35:12.611Z,62.46
2018-08-01T19:36:12.596Z,62.37
2018-08-01T19:37:12.582Z,62.27
2018-08-01T19:38:12.569Z,62.17
2018-08-01T19:39:12.552Z,62.27
2018-08-01T19:40:12.539Z,62.95
2018-08-01T19:41:12.561Z,62.17
2018-08-01T19:42:12.515Z,62.95
2018-08-01T19:43:12.496Z,63.04
2018-08-01T19:44:12.483Z,63.31
2018-08-01T19:45:12.469Z,63.98
2018-08-01T19:46:12.456Z,63.89
2018-08-01T19:47:12.448Z,63.49
2018-08-01T19:48:12.431Z,63.69
2018-08-01T19:49:12.412Z,63.79
2018-08-01T19:50:12.423Z,63.11
2018-08-01T19:51:12.894Z,63.31
2018-08-01T19:52:12.828Z,63.31
2018-08-01T19:53:12.788Z,63.69
2018-08-01T19:54:12.985Z,63.01
2018-08-01T19:55:13.008Z,62.14
2018-08-01T19:56:12.868Z,62.72
2018-08-01T19:57:12.842Z,62.46
2018-08-01T19:58:12.429Z,63.01
2018-08-01T19:59:12.273Z,63.43
2018-08-01T20:00:12.596Z,63.21
2018-08-01T20:01:12.241Z,63.11
2018-08-01T20:02:12.229Z,62.43
2018-08-01T20:03:12.211Z,62.37
2018-08-01T20:04:12.200Z,62.14
2018-08-01T20:05:12.185Z,62.24
2018-08-01T20:06:12.168Z,62.04
2018-08-01T20:07:12.222Z,61.76
2018-08-01T20:08:12.140Z,62.53
2018-08-01T20:09:12.125Z,61.08
2018-08-01T20:10:12.110Z,61.46
2018-08-01T20:11:12.094Z,61.27
2018-08-01T20:12:12.081Z,61.46
2018-08-01T20:13:12.067Z,61.66
2018-08-01T20:14:12.053Z,61.85
2018-08-01T20:15:12.036Z,61.36
2018-08-01T20:16:12.023Z,61.08
2018-08-01T20:17:12.009Z,61.95
2018-08-01T20:18:11.995Z,62.34
2018-08-01T20:19:11.978Z,61.95
2018-08-01T20:20:11.965Z,61.46
2018-08-01T20:21:11.949Z,62.04
2018-08-01T20:22:11.936Z,61.56
2018-08-01T20:23:11.920Z,60.88
2018-08-01T20:24:11.907Z,61.27
2018-08-01T20:25:11.894Z,61.27
2018-08-01T20:26:11.878Z,61.36
2018-08-01T20:27:11.862Z,60.59
2018-08-01T20:28:11.852Z,60.30
2018-08-01T20:29:11.834Z,60.98
2018-08-01T20:30:11.820Z,61.18
2018-08-01T20:31:11.803Z,60.88
2018-08-01T20:32:11.790Z,60.78
2018-08-01T20:33:11.776Z,61.08
2018-08-01T20:34:11.761Z,61.66
2018-08-01T20:35:11.745Z,61.95
2018-08-01T20:36:11.732Z,60.98
2018-08-01T20:37:11.717Z,61.05
2018-08-01T20:38:11.701Z,61.43
2018-08-01T20:39:11.685Z,61.92
2018-08-01T20:40:11.672Z,61.53
2018-08-01T20:41:11.739Z,61.63
2018-08-01T20:42:11.643Z,62.11
2018-08-01T20:43:11.629Z,61.82
2018-08-01T20:44:11.612Z,62.11
2018-08-01T20:45:11.598Z,62.30
2018-08-01T20:46:11.585Z,62.40
2018-08-01T20:47:11.568Z,62.01
2018-08-01T20:48:11.553Z,62.40
2018-08-01T20:49:11.539Z,62.59
2018-08-01T20:50:11.525Z,62.40
2018-08-01T20:51:11.508Z,62.95
2018-08-01T20:52:11.496Z,62.95
2018-08-01T20:53:11.632Z,62.98
2018-08-01T20:54:11.466Z,62.47
2018-08-01T20:55:11.448Z,63.05
2018-08-01T20:56:11.434Z,63.24
2018-08-01T20:57:11.421Z,63.43
2018-08-01T20:58:11.406Z,62.85
2018-08-01T20:59:11.389Z,62.85
2018-08-01T21:00:11.375Z,62.85
2018-08-01T21:01:11.360Z,62.37
2018-08-01T21:02:11.346Z,62.27
2018-08-01T21:03:11.334Z,62.85
2018-08-01T21:04:11.316Z,62.85
2018-08-01T21:05:11.300Z,62.66
2018-08-01T21:06:11.334Z,62.47
2018-08-01T21:07:11.270Z,62.08
2018-08-01T21:08:11.256Z,63.14
2018-08-01T21:09:11.242Z,62.47
2018-08-01T21:10:11.227Z,62.15
2018-08-01T21:11:11.213Z,62.27
2018-08-01T21:12:11.243Z,62.82
2018-08-01T21:13:11.186Z,62.73
2018-08-01T21:14:11.166Z,62.15
2018-08-01T21:15:11.152Z,62.92
2018-08-01T21:16:11.137Z,63.02
2018-08-01T21:17:11.120Z,62.24
2018-08-01T21:18:11.161Z,62.24
2018-08-01T21:19:11.095Z,61.95
2018-08-01T21:20:11.078Z,62.24
2018-08-01T21:21:11.060Z,62.34
2018-08-01T21:22:11.047Z,62.47
2018-08-01T21:23:11.030Z,62.15
2018-08-01T21:24:11.015Z,62.15
2018-08-01T21:25:11.091Z,63.11
2018-08-01T21:26:10.985Z,62.73
2018-08-01T21:27:10.970Z,62.53
2018-08-01T21:28:10.954Z,63.11
2018-08-01T21:29:10.941Z,62.44
2018-08-01T21:30:10.924Z,62.44
2018-08-01T21:31:10.909Z,62.92
2018-08-01T21:32:10.894Z,62.34
2018-08-01T21:33:10.880Z,62.24
2018-08-01T21:34:10.866Z,62.15
2018-08-01T21:35:10.896Z,61.95
2018-08-01T21:36:10.834Z,63.02
2018-08-01T21:37:10.819Z,62.15
2018-08-01T21:38:10.804Z,62.05
2018-08-01T21:39:10.789Z,62.44
2018-08-01T21:40:10.774Z,62.34
2018-08-01T21:41:10.759Z,61.27
2018-08-01T21:42:10.758Z,61.66
2018-08-01T21:43:10.729Z,61.47
2018-08-01T21:44:10.712Z,61.37
2018-08-01T21:45:10.698Z,61.47
2018-08-01T21:46:10.683Z,61.47
2018-08-01T21:47:10.671Z,62.24
2018-08-01T21:48:10.652Z,61.57
2018-08-01T21:49:10.638Z,61.95
2018-08-01T21:50:10.623Z,62.34
2018-08-01T21:51:10.606Z,62.05
2018-08-01T21:52:10.594Z,61.37
2018-08-01T21:53:10.577Z,62.12
2018-08-01T21:54:10.562Z,62.21
2018-08-01T21:55:10.549Z,62.40
2018-08-01T21:56:10.531Z,62.31
2018-08-01T21:57:10.516Z,62.82
2018-08-01T21:58:10.500Z,62.60
2018-08-01T21:59:10.487Z,62.79
2018-08-01T22:00:10.470Z,63.37
2018-08-01T22:01:10.456Z,63.47
2018-08-01T22:02:10.443Z,62.21
2018-08-01T22:03:10.424Z,62.40
2018-08-01T22:04:10.409Z,62.40
2018-08-01T22:05:10.396Z,62.12
2018-08-01T22:06:10.379Z,62.40
2018-08-01T22:07:10.379Z,62.79
2018-08-01T22:08:10.350Z,62.89
2018-08-01T22:09:10.333Z,63.08
2018-08-01T22:10:10.317Z,63.18
2018-08-01T22:11:10.301Z,63.18
2018-08-01T22:12:10.289Z,62.98
2018-08-01T22:13:10.270Z,63.47
2018-08-01T22:14:10.256Z,63.43
2018-08-01T22:15:10.240Z,63.08
2018-08-01T22:16:10.224Z,63.53
2018-08-01T22:17:10.209Z,63.08
2018-08-01T22:18:10.195Z,63.82
2018-08-01T22:19:10.182Z,63.53
2018-08-01T22:20:10.163Z,63.53
2018-08-01T22:21:10.148Z,63.63
2018-08-01T22:22:10.132Z,63.73
2018-08-01T22:23:10.117Z,63.24
2018-08-01T22:24:10.100Z,63.73
2018-08-01T22:25:10.085Z,63.15
2018-08-01T22:26:10.070Z,63.43
2018-08-01T22:27:10.059Z,63.15
2018-08-01T22:28:10.038Z,62.86
2018-08-01T22:29:10.023Z,62.95
2018-08-01T22:30:10.009Z,62.66
2018-08-01T22:31:09.992Z,62.95
2018-08-01T22:32:09.977Z,63.15
2018-08-01T22:33:09.961Z,63.24
2018-08-01T22:34:09.946Z,62.86
2018-08-01T22:35:09.928Z,63.43
2018-08-01T22:36:09.916Z,63.34
2018-08-01T22:37:09.898Z,63.05
2018-08-01T22:38:09.882Z,62.95
2018-08-01T22:39:09.867Z,63.24
2018-08-01T22:40:09.852Z,63.15
2018-08-01T22:41:09.836Z,63.70
2018-08-01T22:42:09.821Z,63.40
2018-08-01T22:43:09.804Z,63.12
2018-08-01T22:44:09.790Z,63.50
2018-08-01T22:45:09.777Z,63.50
2018-08-01T22:46:09.757Z,63.12
2018-08-01T22:47:09.742Z,63.21
2018-08-01T22:48:09.727Z,62.82
2018-08-01T22:49:09.713Z,63.50
2018-08-01T22:50:09.694Z,62.92
2018-08-01T22:51:09.679Z,63.31
2018-08-01T22:52:09.662Z,63.50
2018-08-01T22:53:09.649Z,63.60
2018-08-01T22:54:09.713Z,63.12
2018-08-01T22:55:09.616Z,63.40
2018-08-01T22:56:09.600Z,63.21
2018-08-01T22:57:09.589Z,62.92
2018-08-01T22:58:09.572Z,63.40
2018-08-01T22:59:09.554Z,63.02
2018-08-01T23:00:09.537Z,62.57
2018-08-01T23:01:09.522Z,62.76
2018-08-01T23:02:09.506Z,62.28
2018-08-01T23:03:09.488Z,62.86
2018-08-01T23:04:09.474Z,62.37
2018-08-01T23:05:09.462Z,62.76
2018-08-01T23:06:09.443Z,62.63
2018-08-01T23:07:09.426Z,63.05
2018-08-01T23:08:09.410Z,63.50
2018-08-01T23:09:09.394Z,63.50
2018-08-01T23:10:09.378Z,63.40
2018-08-01T23:11:09.362Z,63.50
2018-08-01T23:12:09.349Z,63.40
2018-08-01T23:13:09.340Z,64.28
2018-08-01T23:14:09.313Z,63.70
2018-08-01T23:15:09.298Z,64.28
2018-08-01T23:16:09.281Z,64.28
2018-08-01T23:17:09.267Z,64.47
2018-08-01T23:18:09.249Z,65.01
2018-08-01T23:19:09.235Z,64.82
2018-08-01T23:20:09.217Z,65.40
2018-08-01T23:21:09.201Z,64.82
2018-08-01T23:22:09.185Z,65.69
2018-08-01T23:23:09.170Z,65.50
2018-08-01T23:24:09.152Z,66.36
2018-08-01T23:25:09.137Z,66.66
2018-08-01T23:26:09.123Z,66.94
2018-08-01T23:27:09.105Z,66.66
2018-08-01T23:28:09.112Z,66.27
2018-08-01T23:29:09.079Z,66.27
2018-08-01T23:30:09.057Z,66.46
2018-08-01T23:31:09.043Z,66.46
2018-08-01T23:32:09.024Z,66.17
2018-08-01T23:33:09.011Z,66.75
2018-08-01T23:34:08.992Z,66.62
2018-08-01T23:35:08.975Z,66.82
2018-08-01T23:36:08.977Z,67.10
2018-08-01T23:37:08.944Z,67.68
2018-08-01T23:38:08.928Z,67.30
2018-08-01T23:39:08.911Z,67.30
2018-08-01T23:40:08.899Z,67.16
2018-08-01T23:41:08.879Z,67.74
2018-08-01T23:42:08.863Z,68.13
2018-08-01T23:43:08.848Z,68.80
2018-08-01T23:44:08.831Z,68.71
2018-08-01T23:45:08.814Z,69.57
2018-08-01T23:46:08.798Z,68.52
2018-08-01T23:47:08.781Z,68.71
2018-08-01T23:48:08.765Z,68.90
2018-08-01T23:49:08.749Z,69.09
2018-08-01T23:50:08.732Z,69.67
2018-08-01T23:51:08.715Z,68.99
2018-08-01T23:52:08.699Z,69.29
2018-08-01T23:53:08.681Z,69.77
2018-08-01T23:54:08.668Z,69.77
2018-08-01T23:55:08.650Z,69.96
2018-08-01T23:56:08.633Z,70.41
2018-08-01T23:57:08.616Z,70.31
2018-08-01T23:58:08.601Z,70.50
2018-08-01T23:59:08.583Z,70.31
